sensor_id;sensor_type;location;lat;lon;timestamp;P1;durP1;ratioP1;P2;durP2;ratioP2
75218;SDS011;63801;49.414;19.474;2022-10-29T00:00:20;22.05;;;10.93;;
75218;SDS011;63801;49.414;19.474;2022-10-29T00:02:20;17.13;;;9.70;;
75218;SDS011;63801;49.414;19.474;2022-10-29T00:04:21;25.65;;;10.80;;
75218;SDS011;63801;49.414;19.474;2022-10-29T00:06:21;19.85;;;10.50;;
75218;SDS011;63801;49.414;19.474;2022-10-29T00:08:21;21.35;;;10.35;;
75218;SDS011;63801;49.414;19.474;2022-10-29T00:10:22;26.30;;;12.32;;
75218;SDS011;63801;49.414;19.474;2022-10-29T00:12:22;32.70;;;15.43;;
75218;SDS011;63801;49.414;19.474;2022-10-29T00:14:23;34.90;;;17.92;;
75218;SDS011;63801;49.414;19.474;2022-10-29T00:16:24;40.92;;;20.00;;
75218;SDS011;63801;49.414;19.474;2022-10-29T00:18:28;37.40;;;19.65;;
75218;SDS011;63801;49.414;19.474;2022-10-29T00:20:29;37.42;;;19.48;;
75218;SDS011;63801;49.414;19.474;2022-10-29T00:22:29;33.88;;;17.83;;
75218;SDS011;63801;49.414;19.474;2022-10-29T00:24:29;37.45;;;20.02;;
75218;SDS011;63801;49.414;19.474;2022-10-29T00:26:30;38.85;;;20.60;;
75218;SDS011;63801;49.414;19.474;2022-10-29T00:28:30;39.42;;;21.85;;
75218;SDS011;63801;49.414;19.474;2022-10-29T00:30:31;37.67;;;20.98;;
75218;SDS011;63801;49.414;19.474;2022-10-29T00:32:31;43.92;;;21.67;;
75218;SDS011;63801;49.414;19.474;2022-10-29T00:34:31;41.47;;;20.48;;
75218;SDS011;63801;49.414;19.474;2022-10-29T00:36:32;34.45;;;18.45;;
75218;SDS011;63801;49.414;19.474;2022-10-29T00:38:33;28.23;;;15.07;;
75218;SDS011;63801;49.414;19.474;2022-10-29T00:40:35;25.23;;;12.02;;
75218;SDS011;63801;49.414;19.474;2022-10-29T00:42:36;21.88;;;11.73;;
75218;SDS011;63801;49.414;19.474;2022-10-29T00:44:37;27.45;;;15.48;;
75218;SDS011;63801;49.414;19.474;2022-10-29T00:46:37;30.90;;;15.10;;
75218;SDS011;63801;49.414;19.474;2022-10-29T00:48:59;16.25;;;9.60;;
75218;SDS011;63801;49.414;19.474;2022-10-29T00:51:01;20.00;;;10.18;;
75218;SDS011;63801;49.414;19.474;2022-10-29T00:53:05;17.85;;;9.98;;
75218;SDS011;63801;49.414;19.474;2022-10-29T00:55:07;22.08;;;12.75;;
75218;SDS011;63801;49.414;19.474;2022-10-29T00:57:43;29.88;;;16.20;;
75218;SDS011;63801;49.414;19.474;2022-10-29T00:59:38;37.05;;;18.88;;
75218;SDS011;63801;49.414;19.474;2022-10-29T01:01:41;40.58;;;20.92;;
75218;SDS011;63801;49.414;19.474;2022-10-29T01:03:43;40.60;;;21.70;;
75218;SDS011;63801;49.414;19.474;2022-10-29T01:05:44;40.13;;;21.02;;
75218;SDS011;63801;49.414;19.474;2022-10-29T01:07:45;41.30;;;20.83;;
75218;SDS011;63801;49.414;19.474;2022-10-29T01:09:46;39.00;;;20.98;;
75218;SDS011;63801;49.414;19.474;2022-10-29T01:13:59;33.25;;;16.40;;
75218;SDS011;63801;49.414;19.474;2022-10-29T01:18:29;25.88;;;13.15;;
75218;SDS011;63801;49.414;19.474;2022-10-29T01:23:49;34.80;;;16.23;;
75218;SDS011;63801;49.414;19.474;2022-10-29T01:39:44;36.28;;;18.15;;
75218;SDS011;63801;49.414;19.474;2022-10-29T01:42:05;35.00;;;19.13;;
75218;SDS011;63801;49.414;19.474;2022-10-29T01:44:22;31.95;;;13.73;;
75218;SDS011;63801;49.414;19.474;2022-10-29T01:48:38;20.38;;;9.98;;
75218;SDS011;63801;49.414;19.474;2022-10-29T01:50:43;15.82;;;8.48;;
75218;SDS011;63801;49.414;19.474;2022-10-29T01:52:47;19.20;;;9.57;;
75218;SDS011;63801;49.414;19.474;2022-10-29T01:54:49;16.80;;;9.10;;
75218;SDS011;63801;49.414;19.474;2022-10-29T01:56:53;17.63;;;9.30;;
75218;SDS011;63801;49.414;19.474;2022-10-29T01:58:55;16.00;;;9.30;;
75218;SDS011;63801;49.414;19.474;2022-10-29T02:01:05;24.30;;;12.13;;
75218;SDS011;63801;49.414;19.474;2022-10-29T02:10:51;31.30;;;15.50;;
75218;SDS011;63801;49.414;19.474;2022-10-29T02:12:54;34.17;;;16.23;;
75218;SDS011;63801;49.414;19.474;2022-10-29T02:15:03;29.20;;;15.27;;
75218;SDS011;63801;49.414;19.474;2022-10-29T02:17:08;26.13;;;14.60;;
75218;SDS011;63801;49.414;19.474;2022-10-29T02:19:08;25.63;;;13.13;;
75218;SDS011;63801;49.414;19.474;2022-10-29T02:21:08;28.27;;;13.65;;
75218;SDS011;63801;49.414;19.474;2022-10-29T02:23:09;30.02;;;14.70;;
75218;SDS011;63801;49.414;19.474;2022-10-29T02:25:10;29.60;;;15.00;;
75218;SDS011;63801;49.414;19.474;2022-10-29T02:27:10;32.03;;;17.27;;
75218;SDS011;63801;49.414;19.474;2022-10-29T02:29:11;40.53;;;18.58;;
75218;SDS011;63801;49.414;19.474;2022-10-29T02:31:11;37.78;;;18.58;;
75218;SDS011;63801;49.414;19.474;2022-10-29T02:33:11;37.97;;;19.15;;
75218;SDS011;63801;49.414;19.474;2022-10-29T02:35:11;40.78;;;19.38;;
75218;SDS011;63801;49.414;19.474;2022-10-29T02:37:12;36.67;;;19.13;;
75218;SDS011;63801;49.414;19.474;2022-10-29T02:39:12;38.53;;;18.90;;
75218;SDS011;63801;49.414;19.474;2022-10-29T02:41:12;34.65;;;18.58;;
75218;SDS011;63801;49.414;19.474;2022-10-29T02:43:13;33.75;;;17.02;;
75218;SDS011;63801;49.414;19.474;2022-10-29T02:45:13;34.42;;;18.17;;
75218;SDS011;63801;49.414;19.474;2022-10-29T02:47:13;30.08;;;15.95;;
75218;SDS011;63801;49.414;19.474;2022-10-29T02:49:14;30.48;;;16.10;;
75218;SDS011;63801;49.414;19.474;2022-10-29T02:51:14;27.30;;;14.48;;
75218;SDS011;63801;49.414;19.474;2022-10-29T02:53:16;30.48;;;14.60;;
75218;SDS011;63801;49.414;19.474;2022-10-29T02:55:16;28.55;;;14.32;;
75218;SDS011;63801;49.414;19.474;2022-10-29T02:57:16;31.58;;;15.52;;
75218;SDS011;63801;49.414;19.474;2022-10-29T02:59:16;29.02;;;15.35;;
75218;SDS011;63801;49.414;19.474;2022-10-29T03:01:17;30.10;;;16.15;;
75218;SDS011;63801;49.414;19.474;2022-10-29T03:03:17;31.35;;;15.75;;
75218;SDS011;63801;49.414;19.474;2022-10-29T03:05:17;30.25;;;14.88;;
75218;SDS011;63801;49.414;19.474;2022-10-29T03:07:18;25.63;;;14.25;;
75218;SDS011;63801;49.414;19.474;2022-10-29T03:09:18;25.20;;;14.70;;
75218;SDS011;63801;49.414;19.474;2022-10-29T03:11:18;27.80;;;14.77;;
75218;SDS011;63801;49.414;19.474;2022-10-29T03:13:19;29.35;;;14.20;;
75218;SDS011;63801;49.414;19.474;2022-10-29T03:15:19;25.83;;;14.07;;
75218;SDS011;63801;49.414;19.474;2022-10-29T03:17:19;28.08;;;14.63;;
75218;SDS011;63801;49.414;19.474;2022-10-29T03:19:19;24.15;;;13.48;;
75218;SDS011;63801;49.414;19.474;2022-10-29T03:21:20;27.75;;;13.55;;
75218;SDS011;63801;49.414;19.474;2022-10-29T03:23:20;24.13;;;13.68;;
75218;SDS011;63801;49.414;19.474;2022-10-29T03:25:21;25.38;;;12.10;;
75218;SDS011;63801;49.414;19.474;2022-10-29T03:27:21;22.63;;;12.02;;
75218;SDS011;63801;49.414;19.474;2022-10-29T03:29:21;20.42;;;10.73;;
75218;SDS011;63801;49.414;19.474;2022-10-29T03:31:22;21.17;;;11.18;;
75218;SDS011;63801;49.414;19.474;2022-10-29T03:33:22;25.33;;;12.63;;
75218;SDS011;63801;49.414;19.474;2022-10-29T03:35:25;22.85;;;11.80;;
75218;SDS011;63801;49.414;19.474;2022-10-29T03:37:25;20.42;;;11.35;;
75218;SDS011;63801;49.414;19.474;2022-10-29T03:39:25;26.23;;;12.40;;
75218;SDS011;63801;49.414;19.474;2022-10-29T03:41:25;23.10;;;11.35;;
75218;SDS011;63801;49.414;19.474;2022-10-29T03:43:26;22.52;;;11.95;;
75218;SDS011;63801;49.414;19.474;2022-10-29T03:45:26;22.42;;;11.13;;
75218;SDS011;63801;49.414;19.474;2022-10-29T03:47:27;22.73;;;11.68;;
75218;SDS011;63801;49.414;19.474;2022-10-29T03:49:28;23.10;;;11.18;;
75218;SDS011;63801;49.414;19.474;2022-10-29T03:51:28;23.90;;;12.40;;
75218;SDS011;63801;49.414;19.474;2022-10-29T03:53:28;19.45;;;9.80;;
75218;SDS011;63801;49.414;19.474;2022-10-29T03:55:29;24.55;;;10.93;;
75218;SDS011;63801;49.414;19.474;2022-10-29T03:57:30;19.50;;;10.20;;
75218;SDS011;63801;49.414;19.474;2022-10-29T03:59:30;22.10;;;10.25;;
75218;SDS011;63801;49.414;19.474;2022-10-29T04:01:30;22.77;;;11.32;;
75218;SDS011;63801;49.414;19.474;2022-10-29T04:03:31;22.55;;;11.02;;
75218;SDS011;63801;49.414;19.474;2022-10-29T04:05:33;21.52;;;9.77;;
75218;SDS011;63801;49.414;19.474;2022-10-29T04:07:33;18.50;;;8.88;;
75218;SDS011;63801;49.414;19.474;2022-10-29T04:09:34;19.10;;;9.57;;
75218;SDS011;63801;49.414;19.474;2022-10-29T04:11:34;22.05;;;9.82;;
75218;SDS011;63801;49.414;19.474;2022-10-29T04:13:34;23.20;;;11.85;;
75218;SDS011;63801;49.414;19.474;2022-10-29T04:15:34;26.42;;;12.32;;
75218;SDS011;63801;49.414;19.474;2022-10-29T04:17:35;23.63;;;12.35;;
75218;SDS011;63801;49.414;19.474;2022-10-29T04:19:35;22.83;;;11.60;;
75218;SDS011;63801;49.414;19.474;2022-10-29T04:21:35;18.98;;;10.48;;
75218;SDS011;63801;49.414;19.474;2022-10-29T04:23:35;13.63;;;8.35;;
75218;SDS011;63801;49.414;19.474;2022-10-29T04:28:05;10.88;;;5.82;;
75218;SDS011;63801;49.414;19.474;2022-10-29T04:30:06;13.13;;;5.88;;
75218;SDS011;63801;49.414;19.474;2022-10-29T04:32:07;8.25;;;3.25;;
75218;SDS011;63801;49.414;19.474;2022-10-29T04:34:07;7.55;;;3.13;;
75218;SDS011;63801;49.414;19.474;2022-10-29T04:36:07;8.40;;;2.80;;
75218;SDS011;63801;49.414;19.474;2022-10-29T04:38:09;5.18;;;2.60;;
75218;SDS011;63801;49.414;19.474;2022-10-29T04:40:10;6.60;;;2.20;;
75218;SDS011;63801;49.414;19.474;2022-10-29T04:42:17;5.97;;;2.38;;
75218;SDS011;63801;49.414;19.474;2022-10-29T04:44:17;9.60;;;2.60;;
75218;SDS011;63801;49.414;19.474;2022-10-29T04:46:18;5.05;;;2.15;;
75218;SDS011;63801;49.414;19.474;2022-10-29T04:48:19;7.03;;;2.47;;
75218;SDS011;63801;49.414;19.474;2022-10-29T04:50:20;9.02;;;2.20;;
75218;SDS011;63801;49.414;19.474;2022-10-29T04:52:20;7.03;;;1.90;;
75218;SDS011;63801;49.414;19.474;2022-10-29T04:54:21;13.65;;;6.60;;
75218;SDS011;63801;49.414;19.474;2022-10-29T04:56:22;15.85;;;8.25;;
75218;SDS011;63801;49.414;19.474;2022-10-29T04:58:22;17.98;;;7.50;;
75218;SDS011;63801;49.414;19.474;2022-10-29T05:00:22;19.73;;;9.23;;
75218;SDS011;63801;49.414;19.474;2022-10-29T05:02:29;17.35;;;8.70;;
75218;SDS011;63801;49.414;19.474;2022-10-29T05:04:29;17.25;;;9.05;;
75218;SDS011;63801;49.414;19.474;2022-10-29T05:06:29;18.02;;;9.18;;
75218;SDS011;63801;49.414;19.474;2022-10-29T05:08:29;19.17;;;9.52;;
75218;SDS011;63801;49.414;19.474;2022-10-29T05:10:34;19.30;;;9.02;;
75218;SDS011;63801;49.414;19.474;2022-10-29T05:12:36;16.40;;;9.18;;
75218;SDS011;63801;49.414;19.474;2022-10-29T05:14:36;14.85;;;8.63;;
75218;SDS011;63801;49.414;19.474;2022-10-29T05:16:36;17.08;;;8.70;;
75218;SDS011;63801;49.414;19.474;2022-10-29T05:18:36;20.08;;;10.95;;
75218;SDS011;63801;49.414;19.474;2022-10-29T05:20:38;21.23;;;11.05;;
75218;SDS011;63801;49.414;19.474;2022-10-29T05:22:38;22.85;;;10.10;;
75218;SDS011;63801;49.414;19.474;2022-10-29T05:24:38;19.95;;;9.38;;
75218;SDS011;63801;49.414;19.474;2022-10-29T05:26:38;16.05;;;9.23;;
75218;SDS011;63801;49.414;19.474;2022-10-29T05:28:39;16.88;;;8.85;;
75218;SDS011;63801;49.414;19.474;2022-10-29T05:30:39;17.50;;;8.90;;
75218;SDS011;63801;49.414;19.474;2022-10-29T05:32:43;21.80;;;8.93;;
75218;SDS011;63801;49.414;19.474;2022-10-29T05:34:43;17.20;;;9.15;;
75218;SDS011;63801;49.414;19.474;2022-10-29T05:36:44;17.15;;;9.52;;
75218;SDS011;63801;49.414;19.474;2022-10-29T05:38:45;19.92;;;9.27;;
75218;SDS011;63801;49.414;19.474;2022-10-29T05:40:45;17.20;;;8.77;;
75218;SDS011;63801;49.414;19.474;2022-10-29T05:42:45;12.10;;;5.63;;
75218;SDS011;63801;49.414;19.474;2022-10-29T05:44:46;13.38;;;5.93;;
75218;SDS011;63801;49.414;19.474;2022-10-29T05:46:49;7.45;;;3.33;;
75218;SDS011;63801;49.414;19.474;2022-10-29T05:48:50;7.63;;;4.05;;
75218;SDS011;63801;49.414;19.474;2022-10-29T05:50:50;14.77;;;6.22;;
75218;SDS011;63801;49.414;19.474;2022-10-29T05:52:57;21.45;;;10.18;;
75218;SDS011;63801;49.414;19.474;2022-10-29T05:55:01;22.63;;;11.07;;
75218;SDS011;63801;49.414;19.474;2022-10-29T05:57:02;57.40;;;36.90;;
75218;SDS011;63801;49.414;19.474;2022-10-29T05:59:02;30.40;;;19.75;;
75218;SDS011;63801;49.414;19.474;2022-10-29T06:01:06;51.40;;;34.28;;
75218;SDS011;63801;49.414;19.474;2022-10-29T06:03:13;76.75;;;50.28;;
75218;SDS011;63801;49.414;19.474;2022-10-29T06:05:21;47.90;;;27.55;;
75218;SDS011;63801;49.414;19.474;2022-10-29T06:07:21;22.17;;;9.43;;
75218;SDS011;63801;49.414;19.474;2022-10-29T06:09:21;23.75;;;10.18;;
75218;SDS011;63801;49.414;19.474;2022-10-29T06:11:22;16.50;;;5.90;;
75218;SDS011;63801;49.414;19.474;2022-10-29T06:13:22;48.65;;;7.78;;
75218;SDS011;63801;49.414;19.474;2022-10-29T06:15:22;9.95;;;4.32;;
75218;SDS011;63801;49.414;19.474;2022-10-29T06:17:23;10.55;;;4.15;;
75218;SDS011;63801;49.414;19.474;2022-10-29T06:19:23;12.30;;;4.18;;
75218;SDS011;63801;49.414;19.474;2022-10-29T06:21:23;5.78;;;2.53;;
75218;SDS011;63801;49.414;19.474;2022-10-29T06:23:24;6.13;;;2.33;;
75218;SDS011;63801;49.414;19.474;2022-10-29T06:25:25;7.35;;;2.45;;
75218;SDS011;63801;49.414;19.474;2022-10-29T06:27:26;6.65;;;2.10;;
75218;SDS011;63801;49.414;19.474;2022-10-29T06:29:26;25.65;;;3.42;;
75218;SDS011;63801;49.414;19.474;2022-10-29T06:31:27;44.45;;;6.40;;
75218;SDS011;63801;49.414;19.474;2022-10-29T06:33:27;10.48;;;2.53;;
75218;SDS011;63801;49.414;19.474;2022-10-29T06:35:27;23.95;;;11.65;;
75218;SDS011;63801;49.414;19.474;2022-10-29T06:37:28;35.42;;;24.00;;
75218;SDS011;63801;49.414;19.474;2022-10-29T06:39:32;30.42;;;16.67;;
75218;SDS011;63801;49.414;19.474;2022-10-29T06:41:32;30.30;;;16.50;;
75218;SDS011;63801;49.414;19.474;2022-10-29T06:43:32;29.77;;;12.68;;
75218;SDS011;63801;49.414;19.474;2022-10-29T06:45:33;14.75;;;5.43;;
75218;SDS011;63801;49.414;19.474;2022-10-29T06:47:40;18.25;;;4.35;;
75218;SDS011;63801;49.414;19.474;2022-10-29T06:49:41;9.73;;;3.30;;
75218;SDS011;63801;49.414;19.474;2022-10-29T06:51:41;7.72;;;2.70;;
75218;SDS011;63801;49.414;19.474;2022-10-29T06:53:42;6.90;;;1.90;;
75218;SDS011;63801;49.414;19.474;2022-10-29T06:55:42;10.05;;;1.60;;
75218;SDS011;63801;49.414;19.474;2022-10-29T06:57:42;6.65;;;2.30;;
75218;SDS011;63801;49.414;19.474;2022-10-29T06:59:43;10.90;;;1.92;;
75218;SDS011;63801;49.414;19.474;2022-10-29T07:01:43;12.95;;;2.47;;
75218;SDS011;63801;49.414;19.474;2022-10-29T07:03:45;9.30;;;1.80;;
75218;SDS011;63801;49.414;19.474;2022-10-29T07:05:46;8.00;;;1.92;;
75218;SDS011;63801;49.414;19.474;2022-10-29T07:07:47;7.30;;;2.53;;
75218;SDS011;63801;49.414;19.474;2022-10-29T07:09:47;28.65;;;16.85;;
75218;SDS011;63801;49.414;19.474;2022-10-29T07:11:48;26.77;;;17.88;;
75218;SDS011;63801;49.414;19.474;2022-10-29T07:13:48;24.20;;;13.02;;
75218;SDS011;63801;49.414;19.474;2022-10-29T07:15:48;23.67;;;15.55;;
75218;SDS011;63801;49.414;19.474;2022-10-29T07:17:58;22.90;;;10.10;;
75218;SDS011;63801;49.414;19.474;2022-10-29T07:20:06;38.75;;;20.98;;
75218;SDS011;63801;49.414;19.474;2022-10-29T07:22:07;22.52;;;11.48;;
75218;SDS011;63801;49.414;19.474;2022-10-29T07:24:07;21.58;;;9.85;;
75218;SDS011;63801;49.414;19.474;2022-10-29T07:26:08;13.27;;;7.35;;
75218;SDS011;63801;49.414;19.474;2022-10-29T07:28:16;18.85;;;8.43;;
75218;SDS011;63801;49.414;19.474;2022-10-29T07:30:22;14.05;;;5.47;;
75218;SDS011;63801;49.414;19.474;2022-10-29T07:32:22;18.25;;;7.88;;
75218;SDS011;63801;49.414;19.474;2022-10-29T07:34:23;17.80;;;8.27;;
75218;SDS011;63801;49.414;19.474;2022-10-29T07:36:23;14.43;;;7.43;;
75218;SDS011;63801;49.414;19.474;2022-10-29T07:38:24;12.95;;;4.53;;
75218;SDS011;63801;49.414;19.474;2022-10-29T07:40:25;10.05;;;3.63;;
75218;SDS011;63801;49.414;19.474;2022-10-29T07:42:25;8.32;;;3.78;;
75218;SDS011;63801;49.414;19.474;2022-10-29T07:44:26;9.00;;;3.63;;
75218;SDS011;63801;49.414;19.474;2022-10-29T07:46:26;9.20;;;3.60;;
75218;SDS011;63801;49.414;19.474;2022-10-29T07:48:26;6.93;;;2.80;;
75218;SDS011;63801;49.414;19.474;2022-10-29T07:50:27;5.78;;;2.25;;
75218;SDS011;63801;49.414;19.474;2022-10-29T07:52:28;10.40;;;3.60;;
75218;SDS011;63801;49.414;19.474;2022-10-29T07:54:29;6.70;;;2.30;;
75218;SDS011;63801;49.414;19.474;2022-10-29T07:56:29;8.20;;;2.78;;
75218;SDS011;63801;49.414;19.474;2022-10-29T07:58:29;6.78;;;2.55;;
75218;SDS011;63801;49.414;19.474;2022-10-29T08:00:30;12.98;;;3.45;;
75218;SDS011;63801;49.414;19.474;2022-10-29T08:04:32;9.67;;;3.40;;
75218;SDS011;63801;49.414;19.474;2022-10-29T08:06:33;7.00;;;3.10;;
75218;SDS011;63801;49.414;19.474;2022-10-29T08:08:33;10.13;;;3.60;;
75218;SDS011;63801;49.414;19.474;2022-10-29T08:10:36;6.28;;;2.90;;
75218;SDS011;63801;49.414;19.474;2022-10-29T08:12:36;6.20;;;3.00;;
75218;SDS011;63801;49.414;19.474;2022-10-29T08:14:37;10.77;;;2.67;;
75218;SDS011;63801;49.414;19.474;2022-10-29T08:16:37;9.55;;;2.70;;
75218;SDS011;63801;49.414;19.474;2022-10-29T08:18:37;7.57;;;2.47;;
75218;SDS011;63801;49.414;19.474;2022-10-29T08:20:38;11.77;;;2.60;;
75218;SDS011;63801;49.414;19.474;2022-10-29T08:22:38;8.02;;;2.05;;
75218;SDS011;63801;49.414;19.474;2022-10-29T08:24:38;5.78;;;2.00;;
75218;SDS011;63801;49.414;19.474;2022-10-29T08:26:38;7.97;;;2.47;;
75218;SDS011;63801;49.414;19.474;2022-10-29T08:28:39;6.78;;;2.38;;
75218;SDS011;63801;49.414;19.474;2022-10-29T08:30:41;7.97;;;2.35;;
75218;SDS011;63801;49.414;19.474;2022-10-29T08:32:45;8.45;;;2.67;;
75218;SDS011;63801;49.414;19.474;2022-10-29T08:34:46;6.45;;;2.20;;
75218;SDS011;63801;49.414;19.474;2022-10-29T08:36:46;7.10;;;2.17;;
75218;SDS011;63801;49.414;19.474;2022-10-29T08:38:46;8.38;;;2.45;;
75218;SDS011;63801;49.414;19.474;2022-10-29T08:43:11;8.85;;;2.75;;
75218;SDS011;63801;49.414;19.474;2022-10-29T08:47:37;9.40;;;2.60;;
75218;SDS011;63801;49.414;19.474;2022-10-29T08:50:16;10.65;;;3.20;;
75218;SDS011;63801;49.414;19.474;2022-10-29T08:52:26;9.68;;;3.83;;
75218;SDS011;63801;49.414;19.474;2022-10-29T08:54:28;8.68;;;2.97;;
75218;SDS011;63801;49.414;19.474;2022-10-29T08:56:33;5.93;;;2.50;;
75218;SDS011;63801;49.414;19.474;2022-10-29T08:58:38;12.95;;;2.55;;
75218;SDS011;63801;49.414;19.474;2022-10-29T09:00:44;8.55;;;3.03;;
75218;SDS011;63801;49.414;19.474;2022-10-29T09:02:54;9.57;;;2.80;;
75218;SDS011;63801;49.414;19.474;2022-10-29T09:04:56;12.10;;;2.90;;
75218;SDS011;63801;49.414;19.474;2022-10-29T09:16:42;8.77;;;3.10;;
75218;SDS011;63801;49.414;19.474;2022-10-29T09:19:06;9.98;;;2.90;;
75218;SDS011;63801;49.414;19.474;2022-10-29T09:23:26;12.05;;;3.22;;
75218;SDS011;63801;49.414;19.474;2022-10-29T09:28:21;8.82;;;2.97;;
75218;SDS011;63801;49.414;19.474;2022-10-29T09:30:31;10.73;;;3.67;;
75218;SDS011;63801;49.414;19.474;2022-10-29T09:35:35;7.50;;;3.20;;
75218;SDS011;63801;49.414;19.474;2022-10-29T09:37:43;8.55;;;3.22;;
75218;SDS011;63801;49.414;19.474;2022-10-29T09:39:48;9.90;;;3.97;;
75218;SDS011;63801;49.414;19.474;2022-10-29T09:41:48;7.53;;;3.45;;
75218;SDS011;63801;49.414;19.474;2022-10-29T09:46:44;11.90;;;3.35;;
75218;SDS011;63801;49.414;19.474;2022-10-29T09:51:08;14.23;;;3.40;;
75218;SDS011;63801;49.414;19.474;2022-10-29T09:53:09;8.32;;;2.75;;
75218;SDS011;63801;49.414;19.474;2022-10-29T09:55:14;11.85;;;3.05;;
75218;SDS011;63801;49.414;19.474;2022-10-29T09:57:20;9.77;;;2.78;;
75218;SDS011;63801;49.414;19.474;2022-10-29T09:59:30;11.63;;;3.88;;
75218;SDS011;63801;49.414;19.474;2022-10-29T10:01:34;15.23;;;3.45;;
75218;SDS011;63801;49.414;19.474;2022-10-29T10:03:37;15.45;;;4.10;;
75218;SDS011;63801;49.414;19.474;2022-10-29T10:08:06;10.23;;;3.55;;
75218;SDS011;63801;49.414;19.474;2022-10-29T10:10:21;9.97;;;4.17;;
75218;SDS011;63801;49.414;19.474;2022-10-29T10:14:35;16.42;;;5.00;;
75218;SDS011;63801;49.414;19.474;2022-10-29T10:16:35;26.25;;;6.75;;
75218;SDS011;63801;49.414;19.474;2022-10-29T10:18:40;23.33;;;9.02;;
75218;SDS011;63801;49.414;19.474;2022-10-29T10:20:42;11.02;;;4.95;;
75218;SDS011;63801;49.414;19.474;2022-10-29T10:22:45;25.52;;;6.80;;
75218;SDS011;63801;49.414;19.474;2022-10-29T10:24:46;13.43;;;4.43;;
75218;SDS011;63801;49.414;19.474;2022-10-29T10:26:47;9.40;;;3.53;;
75218;SDS011;63801;49.414;19.474;2022-10-29T10:28:47;14.43;;;3.35;;
75218;SDS011;63801;49.414;19.474;2022-10-29T10:33:10;9.97;;;3.93;;
75218;SDS011;63801;49.414;19.474;2022-10-29T10:35:31;15.90;;;5.00;;
75218;SDS011;63801;49.414;19.474;2022-10-29T10:37:34;13.82;;;3.80;;
75218;SDS011;63801;49.414;19.474;2022-10-29T10:39:44;19.92;;;7.97;;
75218;SDS011;63801;49.414;19.474;2022-10-29T10:41:49;14.18;;;4.60;;
75218;SDS011;63801;49.414;19.474;2022-10-29T10:43:50;20.60;;;5.95;;
75218;SDS011;63801;49.414;19.474;2022-10-29T10:45:52;15.68;;;4.93;;
75218;SDS011;63801;49.414;19.474;2022-10-29T10:47:55;11.35;;;3.08;;
75218;SDS011;63801;49.414;19.474;2022-10-29T10:50:17;9.25;;;3.20;;
75218;SDS011;63801;49.414;19.474;2022-10-29T10:52:26;16.55;;;4.10;;
75218;SDS011;63801;49.414;19.474;2022-10-29T10:54:40;7.97;;;2.25;;
75218;SDS011;63801;49.414;19.474;2022-10-29T10:56:58;11.10;;;2.47;;
75218;SDS011;63801;49.414;19.474;2022-10-29T10:59:18;7.88;;;2.22;;
75218;SDS011;63801;49.414;19.474;2022-10-29T11:01:24;7.03;;;1.70;;
75218;SDS011;63801;49.414;19.474;2022-10-29T11:08:15;9.50;;;1.83;;
75218;SDS011;63801;49.414;19.474;2022-10-29T11:10:26;5.38;;;1.50;;
75218;SDS011;63801;49.414;19.474;2022-10-29T11:12:35;14.48;;;2.10;;
75218;SDS011;63801;49.414;19.474;2022-10-29T11:16:58;9.93;;;1.65;;
75218;SDS011;63801;49.414;19.474;2022-10-29T11:19:06;5.57;;;1.70;;
75218;SDS011;63801;49.414;19.474;2022-10-29T11:21:32;8.13;;;1.95;;
75218;SDS011;63801;49.414;19.474;2022-10-29T11:23:40;6.78;;;2.10;;
75218;SDS011;63801;49.414;19.474;2022-10-29T11:25:53;15.88;;;2.78;;
75218;SDS011;63801;49.414;19.474;2022-10-29T11:30:22;12.43;;;4.50;;
75218;SDS011;63801;49.414;19.474;2022-10-29T11:32:24;19.98;;;5.22;;
75218;SDS011;63801;49.414;19.474;2022-10-29T11:36:41;16.08;;;6.35;;
75218;SDS011;63801;49.414;19.474;2022-10-29T11:38:57;11.80;;;2.97;;
75218;SDS011;63801;49.414;19.474;2022-10-29T11:41:03;11.23;;;2.70;;
75218;SDS011;63801;49.414;19.474;2022-10-29T11:43:16;15.05;;;5.28;;
75218;SDS011;63801;49.414;19.474;2022-10-29T11:45:26;8.10;;;2.30;;
75218;SDS011;63801;49.414;19.474;2022-10-29T11:52:10;7.63;;;2.35;;
75218;SDS011;63801;49.414;19.474;2022-10-29T11:56:37;10.68;;;2.40;;
75218;SDS011;63801;49.414;19.474;2022-10-29T12:12:41;9.00;;;2.35;;
75218;SDS011;63801;49.414;19.474;2022-10-29T12:27:13;10.35;;;2.30;;
75218;SDS011;63801;49.414;19.474;2022-10-29T12:31:58;14.52;;;2.10;;
75218;SDS011;63801;49.414;19.474;2022-10-29T12:40:29;6.60;;;1.98;;
75218;SDS011;63801;49.414;19.474;2022-10-29T12:42:32;7.05;;;1.98;;
75218;SDS011;63801;49.414;19.474;2022-10-29T12:44:35;8.60;;;2.10;;
75218;SDS011;63801;49.414;19.474;2022-10-29T12:46:47;8.27;;;1.98;;
75218;SDS011;63801;49.414;19.474;2022-10-29T12:56:19;11.13;;;2.80;;
75218;SDS011;63801;49.414;19.474;2022-10-29T12:58:41;10.88;;;2.70;;
75218;SDS011;63801;49.414;19.474;2022-10-29T13:03:56;11.73;;;2.55;;
75218;SDS011;63801;49.414;19.474;2022-10-29T13:05:58;11.43;;;4.07;;
75218;SDS011;63801;49.414;19.474;2022-10-29T13:08:37;8.65;;;2.72;;
75218;SDS011;63801;49.414;19.474;2022-10-29T13:10:47;7.07;;;2.33;;
75218;SDS011;63801;49.414;19.474;2022-10-29T13:12:54;7.93;;;2.20;;
75218;SDS011;63801;49.414;19.474;2022-10-29T13:15:04;13.77;;;6.82;;
75218;SDS011;63801;49.414;19.474;2022-10-29T13:19:22;8.13;;;2.47;;
75218;SDS011;63801;49.414;19.474;2022-10-29T13:21:53;9.75;;;2.30;;
75218;SDS011;63801;49.414;19.474;2022-10-29T13:24:04;11.63;;;3.33;;
75218;SDS011;63801;49.414;19.474;2022-10-29T13:26:05;13.05;;;2.70;;
75218;SDS011;63801;49.414;19.474;2022-10-29T13:34:52;14.50;;;4.07;;
75218;SDS011;63801;49.414;19.474;2022-10-29T13:36:55;9.50;;;2.90;;
75218;SDS011;63801;49.414;19.474;2022-10-29T13:39:32;85.75;;;9.55;;
75218;SDS011;63801;49.414;19.474;2022-10-29T13:41:39;10.00;;;3.70;;
75218;SDS011;63801;49.414;19.474;2022-10-29T13:46:07;13.48;;;3.20;;
75218;SDS011;63801;49.414;19.474;2022-10-29T13:48:23;11.63;;;3.35;;
75218;SDS011;63801;49.414;19.474;2022-10-29T13:50:27;8.55;;;2.78;;
75218;SDS011;63801;49.414;19.474;2022-10-29T13:52:27;12.32;;;3.20;;
75218;SDS011;63801;49.414;19.474;2022-10-29T13:54:36;6.53;;;2.40;;
75218;SDS011;63801;49.414;19.474;2022-10-29T13:56:44;9.68;;;3.00;;
75218;SDS011;63801;49.414;19.474;2022-10-29T13:58:49;14.25;;;2.67;;
75218;SDS011;63801;49.414;19.474;2022-10-29T14:02:59;22.48;;;4.47;;
75218;SDS011;63801;49.414;19.474;2022-10-29T14:07:33;19.35;;;6.18;;
75218;SDS011;63801;49.414;19.474;2022-10-29T14:09:41;13.68;;;3.10;;
75218;SDS011;63801;49.414;19.474;2022-10-29T14:11:49;42.05;;;7.13;;
75218;SDS011;63801;49.414;19.474;2022-10-29T14:13:57;30.70;;;6.82;;
75218;SDS011;63801;49.414;19.474;2022-10-29T14:18:23;17.17;;;3.72;;
75218;SDS011;63801;49.414;19.474;2022-10-29T14:20:25;9.57;;;2.20;;
75218;SDS011;63801;49.414;19.474;2022-10-29T14:22:32;9.13;;;2.20;;
75218;SDS011;63801;49.414;19.474;2022-10-29T14:24:38;12.45;;;4.10;;
75218;SDS011;63801;49.414;19.474;2022-10-29T14:26:39;8.20;;;2.97;;
75218;SDS011;63801;49.414;19.474;2022-10-29T14:28:41;11.52;;;3.05;;
75218;SDS011;63801;49.414;19.474;2022-10-29T14:30:42;8.52;;;2.65;;
75218;SDS011;63801;49.414;19.474;2022-10-29T14:32:43;8.02;;;2.72;;
75218;SDS011;63801;49.414;19.474;2022-10-29T14:34:48;7.18;;;2.35;;